createdAt,value
2022-11-13T00:02:04.467Z,62.65
2022-11-13T00:05:25.362Z,62.62
2022-11-13T00:08:46.979Z,62.56
2022-11-13T00:12:07.983Z,62.39
2022-11-13T00:15:28.934Z,62.60
2022-11-13T00:18:49.791Z,62.84
2022-11-13T00:22:10.130Z,62.95
2022-11-13T00:25:30.883Z,62.97
2022-11-13T00:28:59.565Z,63.07
2022-11-13T00:32:20.924Z,63.20
2022-11-13T00:35:41.690Z,63.27
2022-11-13T00:39:02.834Z,63.28
2022-11-13T00:42:23.321Z,63.47
2022-11-13T00:45:44.050Z,63.47
2022-11-13T00:49:05.103Z,63.50
2022-11-13T00:52:26.205Z,63.56
2022-11-13T00:55:47.446Z,63.61
2022-11-13T00:59:08.552Z,63.67
2022-11-13T01:02:29.559Z,63.77
2022-11-13T01:05:50.677Z,63.71
2022-11-13T01:09:11.045Z,63.67
2022-11-13T01:12:31.801Z,63.71
2022-11-13T01:15:52.165Z,60.60
2022-11-13T01:19:13.232Z,64.73
2022-11-13T01:22:33.861Z,62.50
2022-11-13T01:25:54.689Z,65.19
2022-11-13T01:29:15.175Z,67.17
2022-11-13T01:32:36.369Z,65.30
2022-11-13T01:36:05.048Z,65.62
2022-11-13T01:39:25.719Z,64.51
2022-11-13T01:42:46.195Z,68.67
2022-11-13T01:46:20.586Z,65.20
2022-11-13T01:49:42.870Z,65.00
2022-11-13T01:53:04.377Z,67.02
2022-11-13T01:56:26.361Z,69.98
2022-11-13T01:59:51.437Z,70.30
2022-11-13T02:03:11.849Z,68.96
2022-11-13T02:06:44.350Z,66.97
2022-11-13T02:10:05.724Z,65.60
2022-11-13T02:13:26.581Z,65.38
2022-11-13T02:16:48.960Z,65.19
2022-11-13T02:20:10.693Z,65.49
2022-11-13T02:23:47.769Z,65.08
2022-11-13T02:27:30.357Z,64.81
2022-11-13T02:30:50.933Z,64.71
2022-11-13T02:34:11.619Z,64.40
2022-11-13T02:37:32.020Z,64.42
2022-11-13T02:40:52.919Z,64.37
2022-11-13T02:44:13.545Z,64.08
2022-11-13T02:47:34.411Z,63.93
2022-11-13T02:50:55.671Z,63.96
2022-11-13T02:54:17.255Z,63.97
2022-11-13T02:57:37.999Z,64.15
2022-11-13T03:01:01.176Z,64.29
2022-11-13T03:04:21.728Z,64.34
2022-11-13T03:07:42.701Z,64.41
2022-11-13T03:11:09.084Z,64.28
2022-11-13T03:14:29.958Z,64.27
2022-11-13T03:17:50.388Z,64.22
2022-11-13T03:21:14.909Z,64.18
2022-11-13T03:24:35.588Z,64.19
2022-11-13T03:27:56.885Z,64.17
2022-11-13T03:31:17.322Z,64.16
2022-11-13T03:34:38.722Z,64.29
2022-11-13T03:37:59.168Z,64.35
2022-11-13T03:41:21.225Z,64.43
2022-11-13T03:44:41.374Z,64.39
2022-11-13T03:48:01.992Z,64.39
2022-11-13T03:51:22.608Z,64.29
2022-11-13T03:54:43.488Z,64.34
2022-11-13T03:58:04.550Z,64.29
2022-11-13T04:01:25.398Z,64.37
2022-11-13T04:04:46.046Z,64.47
2022-11-13T04:08:06.916Z,64.55
2022-11-13T04:11:27.137Z,64.62
2022-11-13T04:14:47.761Z,64.63
2022-11-13T04:18:08.716Z,64.55
2022-11-13T04:21:30.083Z,64.48
2022-11-13T04:24:51.408Z,64.48
2022-11-13T04:28:12.600Z,64.47
2022-11-13T04:31:32.991Z,64.50
2022-11-13T04:34:54.350Z,64.50
2022-11-13T04:38:16.052Z,64.57
2022-11-13T04:41:55.923Z,64.56
2022-11-13T04:45:21.638Z,64.60
2022-11-13T04:48:42.767Z,64.62
2022-11-13T04:52:03.895Z,64.63
2022-11-13T04:55:25.020Z,64.70
2022-11-13T04:58:46.413Z,64.76
2022-11-13T05:02:08.040Z,64.69
2022-11-13T05:05:29.973Z,64.55
2022-11-13T05:08:52.188Z,64.60
2022-11-13T05:12:13.914Z,64.48
2022-11-13T05:15:35.305Z,64.62
2022-11-13T05:18:58.630Z,62.09
2022-11-13T05:22:21.978Z,64.09
2022-11-13T05:25:42.626Z,65.52
2022-11-13T05:29:05.461Z,64.82
2022-11-13T05:32:26.496Z,64.50
2022-11-13T05:35:48.307Z,64.25
2022-11-13T05:39:09.460Z,64.13
2022-11-13T05:42:30.368Z,64.14
2022-11-13T05:45:52.499Z,64.20
2022-11-13T05:49:13.760Z,64.25
2022-11-13T05:52:34.225Z,64.29
2022-11-13T05:55:55.080Z,64.21
2022-11-13T05:59:15.996Z,64.14
2022-11-13T06:02:37.078Z,64.11
2022-11-13T06:05:59.157Z,64.12
2022-11-13T06:09:20.361Z,64.17
2022-11-13T06:12:41.247Z,64.12
2022-11-13T06:16:13.255Z,63.96
2022-11-13T06:19:33.776Z,64.04
2022-11-13T06:22:55.106Z,63.97
2022-11-13T06:26:21.754Z,64.13
2022-11-13T06:29:42.994Z,64.13
2022-11-13T06:33:03.852Z,64.23
2022-11-13T06:36:27.856Z,64.29
2022-11-13T06:39:48.850Z,64.42
2022-11-13T06:43:10.726Z,64.38
2022-11-13T06:46:31.911Z,64.39
2022-11-13T06:49:54.867Z,64.48
2022-11-13T06:53:16.460Z,64.48
2022-11-13T06:56:44.788Z,64.53
2022-11-13T07:00:06.464Z,64.73
2022-11-13T07:03:27.649Z,64.65
2022-11-13T07:06:48.798Z,64.58
2022-11-13T07:10:10.029Z,64.60
2022-11-13T07:13:30.324Z,64.69
2022-11-13T07:17:08.691Z,64.55
2022-11-13T07:20:31.589Z,64.57
2022-11-13T07:23:53.518Z,64.60
2022-11-13T07:27:14.503Z,64.72
2022-11-13T07:30:35.601Z,64.92
2022-11-13T07:33:56.173Z,65.03
2022-11-13T07:37:17.424Z,65.15
2022-11-13T07:40:38.224Z,65.23
2022-11-13T07:43:59.180Z,65.05
2022-11-13T07:47:19.571Z,65.00
2022-11-13T07:50:40.921Z,65.05
2022-11-13T07:54:01.763Z,65.14
2022-11-13T07:57:23.468Z,65.14
2022-11-13T08:00:44.382Z,65.05
2022-11-13T08:04:06.714Z,65.21
2022-11-13T08:07:27.181Z,65.36
2022-11-13T08:10:48.400Z,65.70
2022-11-13T08:14:08.823Z,65.65
2022-11-13T08:17:30.211Z,65.81
2022-11-13T08:20:51.360Z,66.02
2022-11-13T08:24:12.790Z,65.96
2022-11-13T08:27:33.728Z,65.68
2022-11-13T08:30:54.547Z,65.59
2022-11-13T08:34:14.991Z,65.52
2022-11-13T08:37:38.215Z,65.37
2022-11-13T08:41:08.341Z,64.20
2022-11-13T08:44:31.539Z,65.40
2022-11-13T08:47:52.361Z,65.87
2022-11-13T08:51:13.094Z,65.82
2022-11-13T08:54:33.769Z,65.69
2022-11-13T08:57:59.198Z,65.56
2022-11-13T09:01:23.213Z,65.48
2022-11-13T09:04:44.455Z,65.48
2022-11-13T09:08:06.460Z,65.60
2022-11-13T09:11:28.268Z,65.52
2022-11-13T09:14:48.950Z,65.32
2022-11-13T09:18:10.883Z,65.70
2022-11-13T09:21:31.477Z,65.40
2022-11-13T09:24:52.781Z,65.90
2022-11-13T09:28:14.403Z,65.86
2022-11-13T09:31:35.415Z,65.87
2022-11-13T09:34:55.967Z,65.48
2022-11-13T09:38:17.565Z,65.21
2022-11-13T09:41:43.013Z,65.04
2022-11-13T09:45:12.453Z,64.90
2022-11-13T09:48:38.158Z,64.90
2022-11-13T09:52:06.752Z,65.05
2022-11-13T09:55:38.832Z,65.09
2022-11-13T09:59:02.368Z,65.03
2022-11-13T10:02:37.285Z,65.01
2022-11-13T10:05:58.311Z,64.86
2022-11-13T10:09:27.731Z,64.65
2022-11-13T10:12:53.620Z,64.66
2022-11-13T10:16:46.795Z,64.61
2022-11-13T10:20:16.492Z,64.63
2022-11-13T10:23:38.728Z,64.66
2022-11-13T10:27:00.136Z,64.72
2022-11-13T10:30:21.372Z,64.72
2022-11-13T10:33:42.299Z,64.66
2022-11-13T10:37:29.744Z,65.08
2022-11-13T10:41:03.902Z,65.53
2022-11-13T10:44:34.687Z,64.99
2022-11-13T10:48:04.319Z,64.72
2022-11-13T10:51:25.821Z,64.61
2022-11-13T10:54:48.495Z,64.74
2022-11-13T10:58:18.869Z,64.54
2022-11-13T11:01:42.243Z,64.41
2022-11-13T11:05:16.284Z,64.24
2022-11-13T11:08:37.395Z,64.16
2022-11-13T11:12:17.533Z,64.16
2022-11-13T11:15:54.415Z,64.07
2022-11-13T11:19:16.697Z,63.99
2022-11-13T11:22:41.117Z,63.86
2022-11-13T11:26:37.126Z,63.75
2022-11-13T11:30:22.380Z,63.62
2022-11-13T11:34:12.908Z,63.43
2022-11-13T11:37:44.428Z,63.36
2022-11-13T11:41:32.223Z,60.99
2022-11-13T11:44:56.180Z,62.43
2022-11-13T11:48:52.898Z,63.60
2022-11-13T11:53:13.219Z,61.56
2022-11-13T11:56:37.428Z,63.38
2022-11-13T12:00:20.088Z,63.31
2022-11-13T12:03:44.513Z,64.53
2022-11-13T12:07:33.512Z,64.33
2022-11-13T12:11:42.057Z,64.54
2022-11-13T12:15:40.047Z,65.24
2022-11-13T12:19:11.143Z,65.49
2022-11-13T12:22:49.905Z,66.18
2022-11-13T12:26:25.133Z,65.14
2022-11-13T12:30:16.683Z,63.95
2022-11-13T12:33:55.664Z,65.94
2022-11-13T12:37:26.541Z,65.76
2022-11-13T12:41:13.156Z,65.16
2022-11-13T12:44:47.767Z,65.06
2022-11-13T12:48:37.641Z,64.65
2022-11-13T12:52:04.993Z,64.47
2022-11-13T12:55:29.745Z,64.21
2022-11-13T13:02:51.236Z,64.26
2022-11-13T13:06:36.196Z,64.24
2022-11-13T13:10:21.474Z,64.27
2022-11-13T13:14:44.854Z,64.12
2022-11-13T13:18:13.780Z,63.93
2022-11-13T13:21:44.013Z,63.80
2022-11-13T13:25:34.748Z,63.79
2022-11-13T13:29:17.896Z,63.84
2022-11-13T13:32:59.464Z,64.00
2022-11-13T13:36:41.107Z,64.00
2022-11-13T13:40:21.642Z,63.98
2022-11-13T13:44:13.464Z,64.13
2022-11-13T13:47:47.327Z,63.21
2022-11-13T13:51:31.065Z,62.61
2022-11-13T13:54:52.900Z,64.60
2022-11-13T13:58:17.959Z,65.40
2022-11-13T14:01:39.305Z,65.02
2022-11-13T14:05:00.103Z,64.42
2022-11-13T14:08:25.202Z,63.87
2022-11-13T14:11:47.876Z,64.45
2022-11-13T14:15:27.964Z,65.63
2022-11-13T14:18:49.471Z,64.78
2022-11-13T14:22:12.479Z,65.07
2022-11-13T14:25:33.219Z,64.79
2022-11-13T14:28:58.269Z,65.71
2022-11-13T14:32:24.396Z,65.13
2022-11-13T14:35:54.002Z,65.56
2022-11-13T14:39:25.727Z,65.33
2022-11-13T14:42:59.960Z,65.67
2022-11-13T14:46:34.810Z,65.65
2022-11-13T14:49:56.157Z,65.65
2022-11-13T14:53:27.505Z,65.99
2022-11-13T14:56:49.075Z,65.84
2022-11-13T15:00:25.993Z,65.45
2022-11-13T15:03:48.303Z,65.11
2022-11-13T15:07:30.557Z,65.27
2022-11-13T15:10:51.892Z,65.91
2022-11-13T15:14:14.759Z,65.58
2022-11-13T15:17:36.651Z,65.56
2022-11-13T15:20:57.405Z,65.31
2022-11-13T15:24:19.509Z,65.07
2022-11-13T15:27:43.250Z,65.15
2022-11-13T15:31:27.754Z,65.13
2022-11-13T15:34:48.131Z,65.06
2022-11-13T15:38:12.764Z,65.04
2022-11-13T15:41:34.328Z,65.07
2022-11-13T15:44:55.471Z,65.10
2022-11-13T15:48:16.089Z,65.04
2022-11-13T15:51:41.558Z,65.02
2022-11-13T15:55:03.054Z,65.04
2022-11-13T15:58:24.549Z,64.96
2022-11-13T16:01:45.561Z,65.21
2022-11-13T16:05:09.552Z,65.31
2022-11-13T16:08:30.144Z,65.44
2022-11-13T16:11:51.157Z,65.39
2022-11-13T16:15:16.950Z,65.41
2022-11-13T16:18:38.091Z,65.56
2022-11-13T16:21:59.325Z,65.39
2022-11-13T16:25:22.045Z,65.50
2022-11-13T16:32:24.786Z,65.81
2022-11-13T16:35:45.589Z,65.66
2022-11-13T16:39:14.751Z,66.04
2022-11-13T16:42:36.606Z,64.95
2022-11-13T16:46:31.435Z,67.09
2022-11-13T16:50:43.269Z,66.06
2022-11-13T16:54:04.298Z,66.13
2022-11-13T16:57:25.742Z,66.73
2022-11-13T17:00:46.694Z,70.19
2022-11-13T17:04:07.650Z,67.74
2022-11-13T17:07:28.207Z,66.51
2022-11-13T17:10:58.084Z,65.93
2022-11-13T17:14:18.753Z,65.69
2022-11-13T17:17:42.535Z,65.86
2022-11-13T17:21:03.425Z,65.71
2022-11-13T17:24:24.263Z,65.48
2022-11-13T17:27:45.118Z,65.41
2022-11-13T17:31:09.850Z,65.26
2022-11-13T17:34:31.065Z,65.37
2022-11-13T17:37:53.746Z,63.96
2022-11-13T17:41:16.431Z,66.29
2022-11-13T17:44:37.890Z,66.01
2022-11-13T17:47:58.931Z,66.26
2022-11-13T17:51:19.744Z,67.08
2022-11-13T17:54:40.494Z,66.37
2022-11-13T17:58:02.442Z,66.77
2022-11-13T18:01:23.402Z,67.56
2022-11-13T18:04:44.662Z,67.54
2022-11-13T18:08:06.493Z,67.59
2022-11-13T18:11:29.607Z,67.81
2022-11-13T18:14:52.690Z,67.83
2022-11-13T18:18:14.947Z,66.88
2022-11-13T18:21:37.081Z,66.47
2022-11-13T18:24:58.401Z,66.41
2022-11-13T18:28:18.766Z,67.00
2022-11-13T18:31:40.377Z,66.80
2022-11-13T18:35:00.863Z,66.26
2022-11-13T18:38:21.729Z,66.16
2022-11-13T18:41:42.829Z,66.06
2022-11-13T18:45:06.290Z,66.10
2022-11-13T18:48:36.416Z,65.92
2022-11-13T18:51:57.430Z,65.54
2022-11-13T18:55:18.186Z,65.01
2022-11-13T18:58:41.051Z,66.99
2022-11-13T19:10:23.994Z,66.03
2022-11-13T19:13:50.064Z,67.32
2022-11-13T19:17:18.255Z,66.96
2022-11-13T19:20:51.442Z,66.81
2022-11-13T19:24:14.725Z,66.12
2022-11-13T19:27:35.815Z,66.62
2022-11-13T19:30:57.385Z,67.11
2022-11-13T19:34:18.962Z,67.20
2022-11-13T19:37:40.558Z,67.10
2022-11-13T19:41:08.394Z,68.95
2022-11-13T19:44:29.651Z,68.26
2022-11-13T19:47:50.537Z,67.86
2022-11-13T19:51:16.829Z,67.95
2022-11-13T19:54:38.453Z,63.65
2022-11-13T19:57:59.549Z,62.10
2022-11-13T20:01:24.086Z,70.05
2022-11-13T20:04:45.882Z,69.81
2022-11-13T20:08:06.575Z,68.45
2022-11-13T20:11:27.666Z,67.79
2022-11-13T20:14:48.329Z,67.35
2022-11-13T20:18:09.535Z,67.42
2022-11-13T20:21:31.624Z,67.31
2022-11-13T20:24:52.652Z,67.22
2022-11-13T20:28:13.401Z,67.24
2022-11-13T20:31:34.340Z,67.10
2022-11-13T20:34:54.615Z,66.93
2022-11-13T20:38:15.997Z,67.00
2022-11-13T20:41:36.942Z,66.85
2022-11-13T20:45:01.118Z,66.86
2022-11-13T20:48:22.517Z,66.82
2022-11-13T20:51:43.733Z,66.75
2022-11-13T20:55:04.853Z,66.44
2022-11-13T20:58:26.558Z,66.35
2022-11-13T21:01:47.061Z,66.36
2022-11-13T21:05:08.639Z,66.35
2022-11-13T21:08:29.926Z,66.33
2022-11-13T21:11:51.135Z,66.32
2022-11-13T21:15:11.915Z,66.44
2022-11-13T21:18:59.444Z,66.37
2022-11-13T21:22:20.179Z,66.21
2022-11-13T21:25:42.267Z,65.96
2022-11-13T21:29:03.155Z,65.78
2022-11-13T21:32:25.716Z,65.73
2022-11-13T21:35:46.588Z,65.71
2022-11-13T21:39:17.445Z,65.55
2022-11-13T21:42:38.166Z,65.54
2022-11-13T21:46:06.145Z,65.48
2022-11-13T21:49:26.793Z,65.56
2022-11-13T21:52:47.729Z,65.23
2022-11-13T21:56:15.254Z,66.13
2022-11-13T21:59:36.763Z,66.84
2022-11-13T22:02:57.494Z,66.44
2022-11-13T22:06:26.124Z,66.19
2022-11-13T22:09:47.289Z,66.25
2022-11-13T22:13:08.445Z,66.42
2022-11-13T22:16:30.811Z,65.32
2022-11-13T22:19:52.221Z,67.20
2022-11-13T22:23:13.141Z,66.93
2022-11-13T22:26:38.111Z,66.00
2022-11-13T22:29:58.762Z,66.70
2022-11-13T22:33:20.009Z,67.00
2022-11-13T22:36:40.320Z,66.51
2022-11-13T22:40:01.693Z,64.72
2022-11-13T22:43:22.545Z,64.81
2022-11-13T22:46:43.312Z,67.70
2022-11-13T22:50:05.290Z,66.98
2022-11-13T22:53:26.328Z,65.62
2022-11-13T22:56:47.150Z,66.65
2022-11-13T23:00:10.358Z,66.37
2022-11-13T23:03:31.600Z,65.79
2022-11-13T23:06:53.961Z,65.39
2022-11-13T23:10:14.752Z,64.57
2022-11-13T23:13:36.052Z,64.22
2022-11-13T23:16:57.518Z,65.66
2022-11-13T23:20:19.095Z,65.28
2022-11-13T23:23:39.959Z,64.66
2022-11-13T23:27:03.093Z,63.61
2022-11-13T23:30:23.853Z,64.73
2022-11-13T23:33:45.568Z,63.46
2022-11-13T23:37:06.646Z,63.82
2022-11-13T23:40:27.812Z,66.52
2022-11-13T23:47:29.711Z,65.86
2022-11-13T23:50:50.261Z,65.89
2022-11-13T23:54:11.503Z,64.48
2022-11-13T23:57:32.145Z,66.36
